sensor_id;sensor_type;location;lat;lon;timestamp;P1;durP1;ratioP1;P2;durP2;ratioP2
38797;SDS011;24546;52.240;16.826;2022-09-09T00:08:07;11.55;;;10.02;;
38797;SDS011;24546;52.240;16.826;2022-09-09T00:13:22;18.30;;;10.20;;
38797;SDS011;24546;52.240;16.826;2022-09-09T00:23:51;14.95;;;10.60;;
38797;SDS011;24546;52.240;16.826;2022-09-09T00:29:14;11.30;;;9.07;;
38797;SDS011;24546;52.240;16.826;2022-09-09T00:34:33;10.57;;;8.95;;
38797;SDS011;24546;52.240;16.826;2022-09-09T00:39:42;10.63;;;9.35;;
38797;SDS011;24546;52.240;16.826;2022-09-09T00:50:53;9.90;;;8.90;;
38797;SDS011;24546;52.240;16.826;2022-09-09T01:01:33;9.13;;;7.27;;
38797;SDS011;24546;52.240;16.826;2022-09-09T01:06:36;9.15;;;8.25;;
38797;SDS011;24546;52.240;16.826;2022-09-09T01:11:43;8.02;;;7.22;;
38797;SDS011;24546;52.240;16.826;2022-09-09T01:17:05;8.85;;;7.38;;
38797;SDS011;24546;52.240;16.826;2022-09-09T01:27:37;7.68;;;6.75;;
38797;SDS011;24546;52.240;16.826;2022-09-09T01:32:43;8.55;;;7.30;;
38797;SDS011;24546;52.240;16.826;2022-09-09T01:37:47;8.43;;;6.70;;
38797;SDS011;24546;52.240;16.826;2022-09-09T01:42:48;8.13;;;6.40;;
38797;SDS011;24546;52.240;16.826;2022-09-09T01:47:50;8.68;;;7.22;;
38797;SDS011;24546;52.240;16.826;2022-09-09T01:53:03;7.85;;;7.03;;
38797;SDS011;24546;52.240;16.826;2022-09-09T02:03:37;7.78;;;6.47;;
38797;SDS011;24546;52.240;16.826;2022-09-09T02:08:48;7.10;;;6.40;;
38797;SDS011;24546;52.240;16.826;2022-09-09T02:13:52;6.03;;;5.10;;
38797;SDS011;24546;52.240;16.826;2022-09-09T02:19:08;6.57;;;5.88;;
38797;SDS011;24546;52.240;16.826;2022-09-09T02:24:28;7.18;;;6.03;;
38797;SDS011;24546;52.240;16.826;2022-09-09T02:29:43;6.67;;;6.03;;
38797;SDS011;24546;52.240;16.826;2022-09-09T02:34:57;6.32;;;5.72;;
38797;SDS011;24546;52.240;16.826;2022-09-09T02:40:10;6.28;;;5.57;;
38797;SDS011;24546;52.240;16.826;2022-09-09T02:45:18;7.53;;;6.70;;
38797;SDS011;24546;52.240;16.826;2022-09-09T03:00:45;7.20;;;6.47;;
38797;SDS011;24546;52.240;16.826;2022-09-09T03:05:47;6.97;;;6.28;;
38797;SDS011;24546;52.240;16.826;2022-09-09T03:10:48;7.07;;;6.28;;
38797;SDS011;24546;52.240;16.826;2022-09-09T03:15:49;7.03;;;6.20;;
38797;SDS011;24546;52.240;16.826;2022-09-09T03:20:54;7.65;;;6.75;;
38797;SDS011;24546;52.240;16.826;2022-09-09T03:25:55;8.27;;;7.35;;
38797;SDS011;24546;52.240;16.826;2022-09-09T03:31:07;8.05;;;6.72;;
38797;SDS011;24546;52.240;16.826;2022-09-09T03:36:13;8.50;;;7.57;;
38797;SDS011;24546;52.240;16.826;2022-09-09T03:41:15;8.02;;;6.70;;
38797;SDS011;24546;52.240;16.826;2022-09-09T03:46:17;7.97;;;7.15;;
38797;SDS011;24546;52.240;16.826;2022-09-09T03:51:19;7.65;;;6.82;;
38797;SDS011;24546;52.240;16.826;2022-09-09T03:56:21;8.02;;;6.72;;
38797;SDS011;24546;52.240;16.826;2022-09-09T04:01:22;8.30;;;6.70;;
38797;SDS011;24546;52.240;16.826;2022-09-09T04:06:23;7.43;;;6.00;;
38797;SDS011;24546;52.240;16.826;2022-09-09T04:11:24;7.22;;;6.53;;
38797;SDS011;24546;52.240;16.826;2022-09-09T04:16:27;7.68;;;6.88;;
38797;SDS011;24546;52.240;16.826;2022-09-09T04:21:28;8.65;;;7.00;;
38797;SDS011;24546;52.240;16.826;2022-09-09T04:26:29;7.47;;;6.25;;
38797;SDS011;24546;52.240;16.826;2022-09-09T04:31:30;6.40;;;5.80;;
38797;SDS011;24546;52.240;16.826;2022-09-09T04:36:32;8.25;;;5.63;;
38797;SDS011;24546;52.240;16.826;2022-09-09T04:41:57;8.30;;;6.35;;
38797;SDS011;24546;52.240;16.826;2022-09-09T04:46:58;6.65;;;6.03;;
38797;SDS011;24546;52.240;16.826;2022-09-09T04:51:59;7.50;;;6.65;;
38797;SDS011;24546;52.240;16.826;2022-09-09T04:57:01;6.90;;;6.03;;
38797;SDS011;24546;52.240;16.826;2022-09-09T05:02:03;9.75;;;6.55;;
38797;SDS011;24546;52.240;16.826;2022-09-09T05:07:04;6.70;;;6.00;;
38797;SDS011;24546;52.240;16.826;2022-09-09T05:12:05;5.80;;;5.20;;
38797;SDS011;24546;52.240;16.826;2022-09-09T05:17:10;6.88;;;5.40;;
38797;SDS011;24546;52.240;16.826;2022-09-09T05:22:13;11.52;;;7.22;;
38797;SDS011;24546;52.240;16.826;2022-09-09T05:27:23;7.65;;;5.78;;
38797;SDS011;24546;52.240;16.826;2022-09-09T05:32:25;8.32;;;6.60;;
38797;SDS011;24546;52.240;16.826;2022-09-09T05:37:27;11.43;;;7.03;;
38797;SDS011;24546;52.240;16.826;2022-09-09T05:42:29;8.68;;;6.95;;
38797;SDS011;24546;52.240;16.826;2022-09-09T05:47:31;9.35;;;7.05;;
38797;SDS011;24546;52.240;16.826;2022-09-09T05:52:33;13.73;;;7.75;;
38797;SDS011;24546;52.240;16.826;2022-09-09T05:57:34;7.97;;;6.57;;
38797;SDS011;24546;52.240;16.826;2022-09-09T06:02:36;8.60;;;6.32;;
38797;SDS011;24546;52.240;16.826;2022-09-09T06:07:39;7.85;;;6.95;;
38797;SDS011;24546;52.240;16.826;2022-09-09T06:12:43;8.60;;;7.70;;
38797;SDS011;24546;52.240;16.826;2022-09-09T06:17:44;9.18;;;7.70;;
38797;SDS011;24546;52.240;16.826;2022-09-09T06:22:47;9.23;;;8.32;;
38797;SDS011;24546;52.240;16.826;2022-09-09T06:27:49;9.63;;;8.73;;
38797;SDS011;24546;52.240;16.826;2022-09-09T06:32:50;9.90;;;7.68;;
38797;SDS011;24546;52.240;16.826;2022-09-09T06:37:52;10.57;;;9.48;;
38797;SDS011;24546;52.240;16.826;2022-09-09T06:42:53;7.53;;;6.82;;
38797;SDS011;24546;52.240;16.826;2022-09-09T06:48:12;8.70;;;7.75;;
38797;SDS011;24546;52.240;16.826;2022-09-09T06:53:15;9.27;;;8.35;;
38797;SDS011;24546;52.240;16.826;2022-09-09T06:58:20;8.27;;;7.00;;
38797;SDS011;24546;52.240;16.826;2022-09-09T07:03:25;8.07;;;7.37;;
38797;SDS011;24546;52.240;16.826;2022-09-09T07:08:26;7.53;;;6.78;;
38797;SDS011;24546;52.240;16.826;2022-09-09T07:13:28;7.80;;;6.47;;
38797;SDS011;24546;52.240;16.826;2022-09-09T07:18:30;9.45;;;7.93;;
38797;SDS011;24546;52.240;16.826;2022-09-09T07:23:32;8.98;;;8.18;;
38797;SDS011;24546;52.240;16.826;2022-09-09T07:28:33;8.30;;;6.50;;
38797;SDS011;24546;52.240;16.826;2022-09-09T07:33:35;7.90;;;6.97;;
38797;SDS011;24546;52.240;16.826;2022-09-09T07:38:38;8.98;;;8.18;;
38797;SDS011;24546;52.240;16.826;2022-09-09T07:43:48;8.70;;;6.70;;
38797;SDS011;24546;52.240;16.826;2022-09-09T07:48:51;8.50;;;7.65;;
38797;SDS011;24546;52.240;16.826;2022-09-09T07:53:59;10.30;;;8.15;;
38797;SDS011;24546;52.240;16.826;2022-09-09T07:59:04;7.53;;;6.85;;
38797;SDS011;24546;52.240;16.826;2022-09-09T08:04:09;7.55;;;6.68;;
38797;SDS011;24546;52.240;16.826;2022-09-09T08:09:16;7.10;;;5.47;;
38797;SDS011;24546;52.240;16.826;2022-09-09T08:14:18;5.82;;;5.30;;
38797;SDS011;24546;52.240;16.826;2022-09-09T08:19:20;6.75;;;6.05;;
38797;SDS011;24546;52.240;16.826;2022-09-09T08:24:21;5.97;;;5.47;;
38797;SDS011;24546;52.240;16.826;2022-09-09T08:29:24;5.78;;;5.25;;
38797;SDS011;24546;52.240;16.826;2022-09-09T08:34:27;6.07;;;5.38;;
38797;SDS011;24546;52.240;16.826;2022-09-09T08:39:29;6.43;;;5.50;;
38797;SDS011;24546;52.240;16.826;2022-09-09T09:00:51;7.57;;;6.90;;
38797;SDS011;24546;52.240;16.826;2022-09-09T09:06:18;6.95;;;6.35;;
38797;SDS011;24546;52.240;16.826;2022-09-09T09:11:40;7.40;;;6.28;;
38797;SDS011;24546;52.240;16.826;2022-09-09T09:27:35;6.95;;;4.28;;
38797;SDS011;24546;52.240;16.826;2022-09-09T09:38:16;4.93;;;4.32;;
38797;SDS011;24546;52.240;16.826;2022-09-09T09:43:20;4.88;;;4.00;;
38797;SDS011;24546;52.240;16.826;2022-09-09T09:48:28;4.93;;;4.35;;
38797;SDS011;24546;52.240;16.826;2022-09-09T09:53:30;5.60;;;4.82;;
38797;SDS011;24546;52.240;16.826;2022-09-09T09:58:38;5.50;;;5.00;;
38797;SDS011;24546;52.240;16.826;2022-09-09T10:04:12;4.53;;;4.13;;
38797;SDS011;24546;52.240;16.826;2022-09-09T10:14:48;4.57;;;3.22;;
38797;SDS011;24546;52.240;16.826;2022-09-09T10:31:13;3.17;;;2.28;;
38797;SDS011;24546;52.240;16.826;2022-09-09T10:36:23;4.07;;;2.35;;
38797;SDS011;24546;52.240;16.826;2022-09-09T10:53:17;4.35;;;3.50;;
38797;SDS011;24546;52.240;16.826;2022-09-09T10:57:47;4.78;;;3.20;;
38797;SDS011;24546;52.240;16.826;2022-09-09T11:02:53;4.18;;;2.80;;
38797;SDS011;24546;52.240;16.826;2022-09-09T11:08:04;5.03;;;2.47;;
38797;SDS011;24546;52.240;16.826;2022-09-09T11:13:17;2.95;;;2.22;;
38797;SDS011;24546;52.240;16.826;2022-09-09T11:18:22;4.40;;;2.30;;
38797;SDS011;24546;52.240;16.826;2022-09-09T11:23:25;3.28;;;2.75;;
38797;SDS011;24546;52.240;16.826;2022-09-09T11:44:30;5.22;;;1.75;;
38797;SDS011;24546;52.240;16.826;2022-09-09T11:54:48;3.53;;;1.70;;
38797;SDS011;24546;52.240;16.826;2022-09-09T11:59:50;2.83;;;1.52;;
38797;SDS011;24546;52.240;16.826;2022-09-09T12:05:05;4.20;;;1.63;;
38797;SDS011;24546;52.240;16.826;2022-09-09T12:15:34;2.88;;;1.25;;
38797;SDS011;24546;52.240;16.826;2022-09-09T12:20:54;5.53;;;1.50;;
38797;SDS011;24546;52.240;16.826;2022-09-09T12:36:53;3.08;;;1.20;;
38797;SDS011;24546;52.240;16.826;2022-09-09T12:41:58;5.40;;;1.70;;
38797;SDS011;24546;52.240;16.826;2022-09-09T12:47:00;3.53;;;1.13;;
38797;SDS011;24546;52.240;16.826;2022-09-09T12:52:05;2.53;;;1.63;;
38797;SDS011;24546;52.240;16.826;2022-09-09T12:57:19;1.67;;;1.10;;
38797;SDS011;24546;52.240;16.826;2022-09-09T13:02:26;4.07;;;1.00;;
38797;SDS011;24546;52.240;16.826;2022-09-09T13:07:28;4.20;;;1.50;;
38797;SDS011;24546;52.240;16.826;2022-09-09T13:12:29;4.00;;;1.10;;
38797;SDS011;24546;52.240;16.826;2022-09-09T13:17:30;1.90;;;1.00;;
38797;SDS011;24546;52.240;16.826;2022-09-09T13:22:33;2.95;;;1.40;;
38797;SDS011;24546;52.240;16.826;2022-09-09T13:27:37;1.58;;;0.82;;
38797;SDS011;24546;52.240;16.826;2022-09-09T13:32:42;2.70;;;1.05;;
38797;SDS011;24546;52.240;16.826;2022-09-09T13:37:43;2.78;;;1.10;;
38797;SDS011;24546;52.240;16.826;2022-09-09T13:42:44;3.72;;;1.00;;
38797;SDS011;24546;52.240;16.826;2022-09-09T13:47:45;5.45;;;1.23;;
38797;SDS011;24546;52.240;16.826;2022-09-09T13:52:48;2.58;;;1.40;;
38797;SDS011;24546;52.240;16.826;2022-09-09T13:57:51;2.17;;;1.10;;
38797;SDS011;24546;52.240;16.826;2022-09-09T14:02:53;3.47;;;1.33;;
38797;SDS011;24546;52.240;16.826;2022-09-09T14:07:55;2.40;;;1.35;;
38797;SDS011;24546;52.240;16.826;2022-09-09T14:12:57;2.22;;;1.10;;
38797;SDS011;24546;52.240;16.826;2022-09-09T14:17:58;3.22;;;1.50;;
38797;SDS011;24546;52.240;16.826;2022-09-09T14:22:59;3.17;;;1.40;;
38797;SDS011;24546;52.240;16.826;2022-09-09T14:28:00;2.30;;;1.42;;
38797;SDS011;24546;52.240;16.826;2022-09-09T14:33:02;2.88;;;1.58;;
38797;SDS011;24546;52.240;16.826;2022-09-09T14:38:03;4.60;;;1.50;;
38797;SDS011;24546;52.240;16.826;2022-09-09T14:43:05;5.03;;;1.60;;
38797;SDS011;24546;52.240;16.826;2022-09-09T14:48:06;3.28;;;1.27;;
38797;SDS011;24546;52.240;16.826;2022-09-09T14:53:09;3.28;;;1.45;;
38797;SDS011;24546;52.240;16.826;2022-09-09T14:58:10;2.40;;;1.40;;
38797;SDS011;24546;52.240;16.826;2022-09-09T15:03:11;3.05;;;1.30;;
38797;SDS011;24546;52.240;16.826;2022-09-09T15:08:12;4.15;;;1.67;;
38797;SDS011;24546;52.240;16.826;2022-09-09T15:13:14;2.92;;;1.73;;
38797;SDS011;24546;52.240;16.826;2022-09-09T15:18:17;4.57;;;1.77;;
38797;SDS011;24546;52.240;16.826;2022-09-09T15:23:17;3.90;;;1.75;;
38797;SDS011;24546;52.240;16.826;2022-09-09T15:28:18;3.10;;;1.67;;
38797;SDS011;24546;52.240;16.826;2022-09-09T15:33:24;4.38;;;1.80;;
38797;SDS011;24546;52.240;16.826;2022-09-09T15:38:25;3.72;;;1.73;;
38797;SDS011;24546;52.240;16.826;2022-09-09T15:43:27;5.30;;;1.85;;
38797;SDS011;24546;52.240;16.826;2022-09-09T15:48:31;5.13;;;1.85;;
38797;SDS011;24546;52.240;16.826;2022-09-09T15:53:35;4.72;;;2.35;;
38797;SDS011;24546;52.240;16.826;2022-09-09T15:58:37;4.70;;;2.25;;
38797;SDS011;24546;52.240;16.826;2022-09-09T16:03:39;4.25;;;1.75;;
38797;SDS011;24546;52.240;16.826;2022-09-09T16:08:49;4.10;;;1.90;;
38797;SDS011;24546;52.240;16.826;2022-09-09T16:13:53;3.75;;;1.77;;
38797;SDS011;24546;52.240;16.826;2022-09-09T16:18:56;5.45;;;2.00;;
38797;SDS011;24546;52.240;16.826;2022-09-09T16:23:59;3.33;;;1.92;;
38797;SDS011;24546;52.240;16.826;2022-09-09T16:29:02;4.93;;;1.77;;
38797;SDS011;24546;52.240;16.826;2022-09-09T16:34:03;4.57;;;2.00;;
38797;SDS011;24546;52.240;16.826;2022-09-09T16:39:05;4.60;;;2.00;;
38797;SDS011;24546;52.240;16.826;2022-09-09T16:44:10;5.45;;;2.22;;
38797;SDS011;24546;52.240;16.826;2022-09-09T16:49:13;3.63;;;2.40;;
38797;SDS011;24546;52.240;16.826;2022-09-09T16:54:15;3.35;;;2.17;;
38797;SDS011;24546;52.240;16.826;2022-09-09T16:59:18;5.28;;;2.60;;
38797;SDS011;24546;52.240;16.826;2022-09-09T17:04:24;4.13;;;2.25;;
38797;SDS011;24546;52.240;16.826;2022-09-09T17:09:27;6.73;;;3.13;;
38797;SDS011;24546;52.240;16.826;2022-09-09T17:14:29;4.63;;;2.95;;
38797;SDS011;24546;52.240;16.826;2022-09-09T17:19:31;5.05;;;3.13;;
38797;SDS011;24546;52.240;16.826;2022-09-09T17:24:32;6.55;;;3.65;;
38797;SDS011;24546;52.240;16.826;2022-09-09T17:29:34;5.10;;;3.83;;
38797;SDS011;24546;52.240;16.826;2022-09-09T17:34:36;7.70;;;3.65;;
38797;SDS011;24546;52.240;16.826;2022-09-09T17:39:38;5.82;;;3.10;;
38797;SDS011;24546;52.240;16.826;2022-09-09T17:44:38;6.25;;;3.30;;
38797;SDS011;24546;52.240;16.826;2022-09-09T17:49:40;6.78;;;3.47;;
38797;SDS011;24546;52.240;16.826;2022-09-09T17:54:41;6.75;;;3.25;;
38797;SDS011;24546;52.240;16.826;2022-09-09T17:59:41;5.40;;;3.85;;
38797;SDS011;24546;52.240;16.826;2022-09-09T18:04:42;4.50;;;3.30;;
38797;SDS011;24546;52.240;16.826;2022-09-09T18:09:43;5.70;;;4.03;;
38797;SDS011;24546;52.240;16.826;2022-09-09T18:14:47;5.30;;;3.50;;
38797;SDS011;24546;52.240;16.826;2022-09-09T18:19:49;6.05;;;4.20;;
38797;SDS011;24546;52.240;16.826;2022-09-09T18:24:50;5.90;;;3.95;;
38797;SDS011;24546;52.240;16.826;2022-09-09T18:29:52;5.72;;;3.58;;
38797;SDS011;24546;52.240;16.826;2022-09-09T18:34:53;6.55;;;3.97;;
38797;SDS011;24546;52.240;16.826;2022-09-09T18:39:58;7.38;;;4.32;;
38797;SDS011;24546;52.240;16.826;2022-09-09T18:44:59;8.45;;;4.90;;
38797;SDS011;24546;52.240;16.826;2022-09-09T18:50:00;6.20;;;4.50;;
38797;SDS011;24546;52.240;16.826;2022-09-09T18:55:01;5.85;;;4.47;;
38797;SDS011;24546;52.240;16.826;2022-09-09T19:00:02;5.80;;;4.88;;
38797;SDS011;24546;52.240;16.826;2022-09-09T19:05:04;6.32;;;5.03;;
38797;SDS011;24546;52.240;16.826;2022-09-09T19:10:06;6.85;;;4.70;;
38797;SDS011;24546;52.240;16.826;2022-09-09T19:15:07;7.50;;;5.03;;
38797;SDS011;24546;52.240;16.826;2022-09-09T19:20:08;9.70;;;5.57;;
38797;SDS011;24546;52.240;16.826;2022-09-09T19:25:09;8.63;;;6.28;;
38797;SDS011;24546;52.240;16.826;2022-09-09T19:30:10;7.95;;;5.28;;
38797;SDS011;24546;52.240;16.826;2022-09-09T19:35:12;10.13;;;6.20;;
38797;SDS011;24546;52.240;16.826;2022-09-09T19:40:13;10.38;;;6.72;;
38797;SDS011;24546;52.240;16.826;2022-09-09T19:45:14;10.40;;;6.60;;
38797;SDS011;24546;52.240;16.826;2022-09-09T19:50:15;8.68;;;6.32;;
38797;SDS011;24546;52.240;16.826;2022-09-09T19:55:16;7.65;;;6.60;;
38797;SDS011;24546;52.240;16.826;2022-09-09T20:00:17;10.48;;;6.68;;
38797;SDS011;24546;52.240;16.826;2022-09-09T20:05:18;9.93;;;6.90;;
38797;SDS011;24546;52.240;16.826;2022-09-09T20:10:20;10.10;;;7.03;;
38797;SDS011;24546;52.240;16.826;2022-09-09T20:15:25;9.70;;;7.05;;
38797;SDS011;24546;52.240;16.826;2022-09-09T20:20:26;8.60;;;6.60;;
38797;SDS011;24546;52.240;16.826;2022-09-09T20:25:28;7.70;;;6.65;;
38797;SDS011;24546;52.240;16.826;2022-09-09T20:30:29;9.60;;;6.45;;
38797;SDS011;24546;52.240;16.826;2022-09-09T20:35:30;8.85;;;6.03;;
38797;SDS011;24546;52.240;16.826;2022-09-09T20:40:35;5.80;;;4.82;;
38797;SDS011;24546;52.240;16.826;2022-09-09T20:45:37;7.82;;;5.90;;
38797;SDS011;24546;52.240;16.826;2022-09-09T20:50:40;7.03;;;5.90;;
38797;SDS011;24546;52.240;16.826;2022-09-09T20:55:40;9.35;;;6.43;;
38797;SDS011;24546;52.240;16.826;2022-09-09T21:00:41;6.35;;;4.85;;
38797;SDS011;24546;52.240;16.826;2022-09-09T21:05:42;10.88;;;5.63;;
38797;SDS011;24546;52.240;16.826;2022-09-09T21:10:43;6.32;;;5.13;;
38797;SDS011;24546;52.240;16.826;2022-09-09T21:15:47;6.78;;;4.80;;
38797;SDS011;24546;52.240;16.826;2022-09-09T21:20:48;7.45;;;5.72;;
38797;SDS011;24546;52.240;16.826;2022-09-09T21:25:50;12.60;;;6.05;;
38797;SDS011;24546;52.240;16.826;2022-09-09T21:30:51;11.75;;;7.22;;
38797;SDS011;24546;52.240;16.826;2022-09-09T21:35:58;12.65;;;8.00;;
38797;SDS011;24546;52.240;16.826;2022-09-09T21:41:03;13.02;;;9.35;;
38797;SDS011;24546;52.240;16.826;2022-09-09T21:46:05;8.88;;;7.65;;
38797;SDS011;24546;52.240;16.826;2022-09-09T21:51:08;9.75;;;8.02;;
38797;SDS011;24546;52.240;16.826;2022-09-09T21:56:11;11.10;;;8.10;;
38797;SDS011;24546;52.240;16.826;2022-09-09T22:01:14;9.88;;;7.50;;
38797;SDS011;24546;52.240;16.826;2022-09-09T22:06:17;10.52;;;8.27;;
38797;SDS011;24546;52.240;16.826;2022-09-09T22:11:20;8.27;;;7.35;;
38797;SDS011;24546;52.240;16.826;2022-09-09T22:16:21;10.88;;;6.97;;
38797;SDS011;24546;52.240;16.826;2022-09-09T22:21:23;8.73;;;6.15;;
38797;SDS011;24546;52.240;16.826;2022-09-09T22:26:26;8.95;;;7.13;;
38797;SDS011;24546;52.240;16.826;2022-09-09T22:31:28;10.80;;;6.75;;
38797;SDS011;24546;52.240;16.826;2022-09-09T22:36:29;8.73;;;6.90;;
38797;SDS011;24546;52.240;16.826;2022-09-09T22:41:31;9.73;;;6.50;;
38797;SDS011;24546;52.240;16.826;2022-09-09T22:46:33;9.18;;;6.07;;
38797;SDS011;24546;52.240;16.826;2022-09-09T22:51:33;8.93;;;6.15;;
38797;SDS011;24546;52.240;16.826;2022-09-09T22:56:37;9.88;;;5.75;;
38797;SDS011;24546;52.240;16.826;2022-09-09T23:01:38;8.23;;;5.20;;
38797;SDS011;24546;52.240;16.826;2022-09-09T23:06:42;6.78;;;5.20;;
38797;SDS011;24546;52.240;16.826;2022-09-09T23:11:44;7.22;;;4.93;;
38797;SDS011;24546;52.240;16.826;2022-09-09T23:16:47;4.80;;;4.18;;
38797;SDS011;24546;52.240;16.826;2022-09-09T23:21:50;6.85;;;4.90;;
38797;SDS011;24546;52.240;16.826;2022-09-09T23:26:51;7.43;;;4.88;;
38797;SDS011;24546;52.240;16.826;2022-09-09T23:31:52;6.10;;;4.25;;
38797;SDS011;24546;52.240;16.826;2022-09-09T23:36:53;5.45;;;4.28;;
38797;SDS011;24546;52.240;16.826;2022-09-09T23:41:55;7.22;;;4.70;;
38797;SDS011;24546;52.240;16.826;2022-09-09T23:46:55;5.05;;;4.32;;
38797;SDS011;24546;52.240;16.826;2022-09-09T23:51:56;5.25;;;4.10;;
38797;SDS011;24546;52.240;16.826;2022-09-09T23:57:02;7.07;;;4.63;;
